Flight Track Log - Related Links

Times and Time Zones

All times are in EDT time to prevent confusion due to time zone crossing. See the AFR338 flight status page for this flight to view local times or setup timezone preferences in your user account.

Time Position Orientation Groundspeed Altitude Reporting Facility
EDT Latitude Longitude Course Direction KTS MPH feet Rate Location/Type
Sat 10:33:01 AM 49.0236 2.5718 85° East 163 188 600  Level FlightAware ADS-B
Sat 10:33:17 AM 49.0248 2.5903 84° East 166 191 1,100 1,875 Climbing FlightAware ADS-B
Sat 10:33:33 AM 49.0260 2.6083 84° East 167 192 1,600 1,742 Climbing FlightAware ADS-B
Sat 10:33:48 AM 49.0267 2.6268 87° East 170 196 2,000 1,742 Climbing FlightAware ADS-B
Sat 10:34:04 AM 49.0276 2.6449 86° East 168 193 2,500 1,800 Climbing FlightAware ADS-B
Sat 10:34:18 AM 49.0286 2.6622 85° East 169 194 2,900 1,400 Climbing FlightAware ADS-B
Sat 10:34:34 AM 49.0297 2.6802 85° East 173 199 3,200 1,161 Climbing FlightAware ADS-B
Sat 10:34:49 AM 49.0307 2.6992 85° East 183 211 3,500 1,200 Climbing FlightAware ADS-B
Sat 10:35:04 AM 49.0318 2.7202 85° East 198 228 3,800 1,143 Climbing FlightAware ADS-B
Sat 10:35:10 AM 49.0327 2.7289 81° East 203 234 3,900 1,000 Climbing FlightAware ADS-B
Sat 10:35:16 AM 49.0342 2.7371 74° East 207 238 4,000 667 Climbing FlightAware ADS-B
Sat 10:35:19 AM 49.0355 2.7415 66° East 208 239 4,000 600 Level FlightAware ADS-B
Sat 10:35:26 AM 49.0386 2.7490 58° Northeast 212 244 4,100 1,200 Climbing FlightAware ADS-B
Sat 10:35:29 AM 49.0407 2.7522 45° Northeast 213 245 4,200 1,333 Climbing FlightAware ADS-B
Sat 10:35:35 AM 49.0455 2.7575 36° Northeast 215 247 4,300 1,333 Climbing FlightAware ADS-B
Sat 10:35:38 AM 49.0484 2.7596 25° Northeast 218 251 4,400 1,000 Climbing FlightAware ADS-B
Sat 10:35:41 AM 49.0514 2.7612 19° North 221 254 4,400 857 Level FlightAware ADS-B
Sat 10:35:45 AM 49.0552 2.7623 12° North 224 258 4,500 1,500 Climbing FlightAware ADS-B
Sat 10:35:49 AM 49.0594 2.7627 North 228 262 4,600 1,714 Climbing FlightAware ADS-B
Sat 10:35:52 AM 49.0635 2.7622 355° North 233 268 4,700 750 Climbing FlightAware ADS-B
Sat 10:35:57 AM 49.0679 2.7608 348° North 236 272 4,700 667 Level FlightAware ADS-B
Sat 10:36:01 AM 49.0722 2.7586 341° North 239 275 4,800 1,333 Climbing FlightAware ADS-B
Sat 10:36:06 AM 49.0771 2.7548 333° Northwest 245 282 4,900 1,385 Climbing FlightAware ADS-B
Sat 10:36:14 AM 49.0844 2.7454 320° Northwest 250 288 5,100 1,588 Climbing FlightAware ADS-B
Sat 10:36:40 AM 49.0960 2.6987 291° West 283 326 5,800 1,756 Climbing FlightAware ADS-B
Sat 10:36:55 AM 49.0970 2.6681 273° West 295 339 6,300 2,100 Climbing FlightAware ADS-B
Sat 10:37:00 AM 49.0971 2.6579 271° West 297 342 6,500 2,000 Climbing FlightAware ADS-B
Sat 10:37:04 AM 49.0969 2.6489 268° West 298 343 6,600 2,667 Climbing FlightAware ADS-B
Sat 10:37:09 AM 49.0963 2.6386 265° West 300 345 6,900 2,667 Climbing FlightAware ADS-B
Sat 10:37:13 AM 49.0955 2.6311 261° West 302 348 7,000 2,000 Climbing FlightAware ADS-B
Sat 10:37:21 AM 49.0930 2.6144 257° West 305 351 7,300 2,333 Climbing FlightAware ADS-B
Sat 10:37:31 AM 49.0887 2.5941 252° West 308 354 7,700 2,625 Climbing FlightAware ADS-B
Sat 10:37:37 AM 49.0855 2.5809 250° West 310 357 8,000 2,182 Climbing FlightAware ADS-B
Sat 10:37:53 AM 49.0767 2.5482 248° West 316 364 8,500 2,516 Climbing FlightAware ADS-B
Sat 10:38:08 AM 49.0683 2.5178 247° West 312 359 9,300 2,710 Climbing FlightAware ADS-B
Sat 10:38:24 AM 49.0592 2.4854 247° West 319 367 9,900 1,750 Climbing FlightAware ADS-B
Sat 10:38:56 AM 49.0404 2.4182 247° West 339 390 10,700 1,500 Climbing FlightAware ADS-B
Sat 10:39:20 AM 49.0264 2.3634 249° West 359 413 11,300 1,371 Climbing FlightAware ADS-B
Sat 10:39:31 AM 49.0226 2.3355 258° West 369 425 11,500 1,304 Climbing FlightAware ADS-B
Sat 10:39:43 AM 49.0217 2.3033 268° West 377 434 11,800 1,200 Climbing FlightAware ADS-B
Sat 10:39:51 AM 49.0221 2.2814 272° West 385 443 11,900 1,385 Climbing FlightAware ADS-B
Sat 10:40:22 AM 49.0247 2.1959 273° West 409 471 12,700  Climbing FlightAware ADS-B
Sat 10:40:47 AM 49.0296 2.1303 273° West 414 476 11,900 1,950 Descending FlightAware UK
Sat 10:41:02 AM 49.0280 2.0870 273° West 427 491 14,000 5,833 Climbing FlightAware ADS-B
Sat 10:41:23 AM 49.0306 2.0143 273° West 423 487 15,400 769 Climbing FlightAware ADS-B
Sat 10:41:41 AM 49.0330 1.9618 273° West 428 493 14,500 -167 Descending FlightAware UK
Sat 10:41:59 AM 49.0337 1.9053 271° West 432 497 15,300 2,667 Climbing FlightAware UK
Sat 10:42:17 AM 49.0358 1.8496 273° West 434 499 16,100 5,357 Climbing FlightAware UK
Sat 10:42:27 AM 49.0360 1.8340 273° West 453 521 17,800 2,483 Climbing FlightAware ADS-B
Sat 10:42:46 AM 49.0377 1.7537 273° West 440 506 17,300 2,550 Descending FlightAware UK
Sat 10:43:07 AM 49.0400 1.6910 273° West 470 541 19,500 2,375 Climbing FlightAware ADS-B
Sat 10:43:34 AM 49.0420 1.5941 273° West 466 536 19,200 2,667 Descending FlightAware UK
Sat 10:43:52 AM 49.0440 1.5390 273° West 478 550 21,500 2,667 Climbing FlightAware ADS-B
Sat 10:44:10 AM 49.0456 1.4742 273° West 474 545 20,800 -167 Descending FlightAware UK
Sat 10:44:28 AM 49.0469 1.4127 272° West 474 545 21,400 6,273 Climbing FlightAware UK
Sat 10:44:32 AM 49.0470 1.4020 272° West 485 558 23,100 2,250 Climbing FlightAware ADS-B
Sat 10:44:52 AM 49.0489 1.3301 272° West 480 552 22,300 -316 Descending FlightAware UK
Sat 10:45:10 AM 49.0505 1.2681 272° West 486 559 22,900 6,300 Climbing FlightAware UK
Sat 10:45:12 AM 49.0510 1.2720 272° West 494 568 24,400 2,000 Climbing FlightAware ADS-B
Sat 10:45:46 AM 49.0536 1.1431 272° West 490 564 24,100 2,133 Descending FlightAware UK
Sat 10:45:57 AM 49.0540 1.1120 272° West 504 580 26,000 2,000 Climbing FlightAware ADS-B
Sat 10:46:16 AM 49.0559 1.0363 272° West 498 573 25,100 -649 Descending FlightAware UK
Sat 10:46:34 AM 49.0576 0.9718 272° West 498 573 25,600 6,000 Climbing FlightAware UK
Sat 10:46:37 AM 49.0580 0.9700 272° West 511 588 27,200 1,750 Climbing FlightAware ADS-B
Sat 10:46:58 AM 49.0596 0.8852 272° West 494 568 26,300 1,067 Descending FlightAware UK
Sat 10:47:22 AM 49.0610 0.8010 272° West 516 594 28,000 700 Climbing FlightAware ADS-B
Sat 10:47:58 AM 49.0658 0.6679 272° West 504 580 27,000 900 Descending FlightAware UK
Sat 10:48:02 AM 49.0680 0.6550 272° West 521 600 28,600 2,286 Climbing FlightAware ADS-B
Sat 10:48:40 AM 49.0822 0.5162 272° West 506 582 28,600 2,400 Level FlightAware UK
Sat 10:48:42 AM 49.0820 0.5190 272° West 513 590 30,200 2,667 Climbing FlightAware ADS-B
Sat 10:48:58 AM 49.0893 0.4521 272° West 504 580 29,400 -182 Descending FlightAware UK
Sat 10:49:15 AM 49.0968 0.3897 280° West 504 580 30,100 5,172 Climbing FlightAware UK
Sat 10:49:27 AM 49.1010 0.3590 280° West 501 577 31,900 3,577 Climbing FlightAware ADS-B
Sat 10:50:07 AM 49.1180 0.2240 281° West 494 568 33,200 400 Climbing FlightAware ADS-B
Sat 10:50:27 AM 49.1273 0.1439 281° West 494 568 32,300 -1,105 Descending FlightAware UK
Sat 10:50:45 AM 49.1347 0.0832 281° West 492 566 32,500 4,080 Climbing FlightAware UK
Sat 10:50:52 AM 49.1370 0.0680 281° West 489 563 34,000  Climbing FlightAware ADS-B
Sat 10:51:09 AM 49.1446 0.0023 281° West 490 564 32,500  Descending FlightAware UK
Sat 10:51:32 AM 49.1540 -0.0730 281° West 490 564 34,000 1,429 Climbing FlightAware ADS-B
Sat 10:52:12 AM 49.1710 -0.2070 281° West 489 563 34,000 -1,475 Level FlightAware ADS-B
Sat 10:52:33 AM 49.1796 -0.2813 281° West 488 562 32,500  Descending FlightAware UK
Sat 10:52:57 AM 49.1880 -0.3550 281° West 488 562 34,000 1,406 Climbing FlightAware ADS-B
Sat 10:53:37 AM 49.2040 -0.4890 280° West 488 562 34,000  Level FlightAware ADS-B
Sat 10:54:22 AM 49.2220 -0.6400 280° West 487 560 34,000 -1,324 Level FlightAware ADS-B
Sat 10:54:45 AM 49.2315 -0.7274 280° West 490 564 32,500  Descending FlightAware UK
Sat 10:55:02 AM 49.2390 -0.7830 280° West 486 559 34,000 1,579 Climbing FlightAware ADS-B
Sat 10:55:42 AM 49.2540 -0.9160 280° West 485 558 34,000  Level FlightAware ADS-B
Sat 10:56:22 AM 49.2690 -1.0520 280° West 484 557 34,000 -1,324 Level FlightAware ADS-B
Sat 10:56:50 AM 49.2797 -1.1518 280° West 488 562 32,500  Descending FlightAware UK
Sat 10:57:07 AM 49.2850 -1.1940 280° West 485 558 34,000  Climbing FlightAware ADS-B
Sat 10:57:26 AM 49.2933 -1.2728 280° West 490 564 32,500 -2,432 Descending FlightAware UK
Sat 10:57:44 AM 49.3000 -1.3336 280° West 490 564 32,500 3,462 Level FlightAware UK
Sat 10:57:52 AM 49.3010 -1.3400 280° West 485 558 34,000 2,195 Climbing FlightAware ADS-B
Sat 10:58:25 AM 49.3160 -1.4733 280° West 486 559 34,000 -1,552 Level FlightAware ADS-B
Sat 10:58:50 AM 49.3252 -1.5564 280° West 490 564 32,500  Descending FlightAware UK
Sat 10:59:12 AM 49.3300 -1.6050 280° West 485 558 34,000  Climbing FlightAware ADS-B
Sat 10:59:44 AM 49.3449 -1.7391 280° West 490 564 32,500  Descending FlightAware UK
Sat 10:59:57 AM 49.3480 -1.7680 280° West 486 559 34,000  Climbing FlightAware ADS-B
Sat 11:00:20 AM 49.3576 -1.8606 280° West 492 566 32,500  Descending FlightAware UK
Sat 11:00:37 AM 49.3620 -1.9000 280° West 484 557 34,000  Climbing FlightAware ADS-B
Sat 11:00:56 AM 49.3704 -1.9824 280° West 490 564 32,500 -2,432 Descending FlightAware UK
Sat 11:01:14 AM 49.3767 -2.0436 279° West 490 564 32,500 4,286 Level FlightAware UK
Sat 11:01:17 AM 49.3770 -2.0420 279° West 483 556 34,000  Climbing FlightAware ADS-B
Sat 11:01:32 AM 49.3830 -2.1048 279° West 488 562 32,500 -2,308 Descending FlightAware UK
Sat 11:01:56 AM 49.3925 -2.1852 280° West 490 564 32,500 3,000 Level FlightAware UK
Sat 11:02:02 AM 49.3930 -2.1920 280° West 483 556 34,000  Climbing FlightAware ADS-B
Sat 11:02:25 AM 49.4043 -2.2860 280° West 490 564 32,500  Descending FlightAware UK
Sat 11:02:37 AM 49.4070 -2.3100 280° West 483 556 34,000  Climbing FlightAware ADS-B
Sat 11:02:55 AM 49.4161 -2.3875 280° West 492 566 32,500 -2,143 Descending FlightAware UK
Sat 11:03:19 AM 49.4256 -2.4677 280° West 494 568 32,500 2,813 Level FlightAware UK
Sat 11:03:27 AM 49.4270 -2.4780 280° West 482 555 34,000  Climbing FlightAware ADS-B
Sat 11:03:43 AM 49.4316 -2.5491 280° West 492 566 32,500 -2,647 Descending FlightAware UK
Sat 11:04:01 AM 49.4363 -2.6103 277° West 492 566 32,500 2,308 Level FlightAware UK
Sat 11:04:22 AM 49.4400 -2.6470 277° West 482 555 34,000  Climbing FlightAware ADS-B
Sat 11:04:43 AM 49.4484 -2.7524 277° West 490 564 32,500  Descending FlightAware UK
Sat 11:05:02 AM 49.4520 -2.7930 277° West 481 554 34,000  Climbing FlightAware ADS-B
Sat 11:05:19 AM 49.4595 -2.8732 277° West 490 564 32,500  Descending FlightAware UK
Sat 11:05:42 AM 49.4650 -2.9290 277° West 480 552 34,000  Climbing FlightAware ADS-B
Sat 11:06:01 AM 49.4730 -3.0144 277° West 490 564 32,500  Descending FlightAware UK
Sat 11:06:27 AM 49.4800 -3.0870 277° West 481 554 34,000  Climbing FlightAware ADS-B
Sat 11:06:43 AM 49.4864 -3.1560 277° West 490 564 32,500 -2,250 Descending FlightAware UK
Sat 11:07:07 AM 49.4940 -3.2369 278° West 492 566 32,500 3,750 Level FlightAware UK
Sat 11:07:07 AM 49.4930 -3.2280 278° West 479 551 34,000  Climbing FlightAware ADS-B
Sat 11:07:25 AM 49.4996 -3.2974 278° West 492 566 32,500 -2,500 Descending FlightAware UK
Sat 11:07:43 AM 49.5052 -3.3579 278° West 490 564 32,500 3,333 Level FlightAware UK
Sat 11:07:52 AM 49.5070 -3.3780 278° West 477 549 34,000  Climbing FlightAware ADS-B
Sat 11:08:19 AM 49.5164 -3.4781 278° West 490 564 32,500  Descending FlightAware UK
Sat 11:08:32 AM 49.5180 -3.5020 278° West 477 549 34,000  Climbing FlightAware ADS-B
Sat 11:08:55 AM 49.5272 -3.5987 278° West 488 562 32,500 -1,698 Descending FlightAware UK
Sat 11:09:25 AM 49.5360 -3.6993 278° West 488 562 32,500 2,432 Level FlightAware UK
Sat 11:09:32 AM 49.5360 -3.7020 278° West 477 549 34,000  Climbing FlightAware ADS-B
Sat 11:09:49 AM 49.5473 -3.7785 278° West 488 562 32,500 -2,571 Descending FlightAware UK
Sat 11:10:07 AM 49.5592 -3.8369 287° West 490 564 32,500 3,913 Level FlightAware UK
Sat 11:10:12 AM 49.5600 -3.8380 287° West 477 549 34,000  Climbing FlightAware ADS-B
Sat 11:10:31 AM 49.5803 -3.9114 287° West 492 566 32,500  Descending FlightAware UK
Sat 11:10:52 AM 49.5910 -3.9530 287° West 478 550 34,000  Climbing FlightAware ADS-B
Sat 11:11:30 AM 49.6318 -4.0987 287° West 488 562 32,500  Descending FlightAware UK
Sat 11:11:37 AM 49.6330 -4.1030 287° West 478 550 34,000  Climbing FlightAware ADS-B
Sat 11:12:00 AM 49.6576 -4.1924 287° West 488 562 32,500  Descending FlightAware UK
Sat 11:12:17 AM 49.6700 -4.2370 287° West 478 550 34,000  Climbing FlightAware ADS-B
Sat 11:12:36 AM 49.6886 -4.3051 287° West 490 564 32,500  Descending FlightAware UK
Sat 11:13:02 AM 49.7090 -4.3790 287° West 477 549 34,000  Climbing FlightAware ADS-B
Sat 11:13:18 AM 49.7248 -4.4367 287° West 490 564 32,500  Descending FlightAware UK
Sat 11:13:37 AM 49.7390 -4.4900 287° West 478 550 34,000  Climbing FlightAware ADS-B
Sat 11:13:54 AM 49.7558 -4.5497 287° West 490 564 32,500 -2,571 Descending FlightAware UK
Sat 11:14:12 AM 49.7711 -4.6065 293° West 490 564 32,500  Level FlightAware UK
Sat 11:14:30 AM 49.7864 -4.6632 293° West 492 566 32,500  Level FlightAware UK
Sat 11:14:48 AM 49.8016 -4.7199 293° West 490 564 32,500  Level FlightAware UK
Sat 11:15:06 AM 49.8169 -4.7768 293° West 490 564 32,500  Level FlightAware UK
Sat 11:15:24 AM 49.8319 -4.8329 293° West 488 562 32,500  Level FlightAware UK
Sat 11:15:42 AM 49.8472 -4.8895 293° West 488 562 32,500  Level FlightAware UK
Sat 11:16:00 AM 49.8625 -4.9462 293° West 488 562 32,500  Level FlightAware UK
Sat 11:16:18 AM 49.8778 -5.0029 293° West 490 564 32,500  Level FlightAware UK
Sat 11:16:36 AM 49.8929 -5.0598 292° West 490 564 32,500  Level FlightAware UK
Sat 11:16:54 AM 49.9079 -5.1168 292° West 490 564 32,500  Level FlightAware UK
Sat 11:17:12 AM 49.9230 -5.1738 292° West 492 566 32,500  Level FlightAware UK
Sat 11:17:30 AM 49.9380 -5.2309 292° West 490 564 32,500  Level FlightAware UK
Sat 11:17:54 AM 49.9580 -5.3069 292° West 492 566 32,500  Level FlightAware UK
Sat 11:18:12 AM 49.9730 -5.3640 292° West 492 566 32,500  Level FlightAware UK
Sat 11:18:30 AM 49.9880 -5.4210 292° West 492 566 32,500  Level FlightAware UK
Sat 11:18:48 AM 50.0030 -5.4780 292° West 492 566 32,500 2,813 Level FlightAware UK
Sat 11:19:02 AM 50.0090 -5.5000 292° West 476 548 34,000  Climbing FlightAware ADS-B
Sat 11:19:18 AM 50.0276 -5.5730 292° West 492 566 32,500 -2,647 Descending FlightAware UK
Sat 11:19:36 AM 50.0424 -5.6299 292° West 492 566 32,500 3,750 Level FlightAware UK
Sat 11:19:42 AM 50.0420 -5.6300 292° West 475 547 34,000  Climbing FlightAware ADS-B
Sat 11:20:00 AM 50.0620 -5.7058 292° West 490 564 32,500 -2,500 Descending FlightAware UK
Sat 11:20:18 AM 50.0767 -5.7628 292° West 492 566 32,500 3,333 Level FlightAware UK
Sat 11:20:27 AM 50.0800 -5.7740 292° West 475 547 34,000  Climbing FlightAware ADS-B
Sat 11:20:42 AM 50.0962 -5.8388 292° West 492 566 32,500 -2,727 Descending FlightAware UK
Sat 11:21:00 AM 50.1109 -5.8958 292° West 490 564 32,500 3,600 Level FlightAware UK
Sat 11:21:07 AM 50.1120 -5.8990 292° West 473 544 34,000  Climbing FlightAware ADS-B
Sat 11:21:24 AM 50.1303 -5.9710 292° West 490 564 32,500 -2,571 Descending FlightAware UK
Sat 11:21:42 AM 50.1449 -6.0280 292° West 488 562 32,500 3,214 Level FlightAware UK
Sat 11:21:52 AM 50.1490 -6.0440 292° West 474 545 34,000  Climbing FlightAware ADS-B
Sat 11:22:12 AM 50.1689 -6.1230 292° West 490 564 32,500 -2,368 Descending FlightAware UK
Sat 11:22:30 AM 50.1834 -6.1800 292° West 492 566 32,500 4,500 Level FlightAware UK
Sat 11:22:32 AM 50.1820 -6.1750 292° West 474 545 34,000  Climbing FlightAware ADS-B
Sat 11:22:48 AM 50.1977 -6.2371 292° West 490 564 32,500 -2,647 Descending FlightAware UK
Sat 11:23:06 AM 50.2120 -6.2942 291° West 490 564 32,500 3,103 Level FlightAware UK
Sat 11:23:17 AM 50.2180 -6.3180 291° West 471 542 34,000  Climbing FlightAware ADS-B
Sat 11:23:36 AM 50.2358 -6.3891 291° West 488 562 32,500 -2,432 Descending FlightAware UK
Sat 11:23:54 AM 50.2501 -6.4459 292° West 488 562 32,500 4,286 Level FlightAware UK
Sat 11:23:57 AM 50.2500 -6.4460 292° West 471 542 34,000  Climbing FlightAware ADS-B
Sat 11:24:12 AM 50.2643 -6.5027 292° West 490 564 32,500 -2,727 Descending FlightAware UK
Sat 11:24:30 AM 50.2785 -6.5595 291° West 490 564 32,500 3,000 Level FlightAware UK
Sat 11:24:42 AM 50.2860 -6.5900 291° West 469 540 34,000  Climbing FlightAware ADS-B
Sat 11:25:00 AM 50.3019 -6.6543 291° West 488 562 32,500 -2,500 Descending FlightAware UK
Sat 11:25:18 AM 50.3160 -6.7110 291° West 488 562 32,500 4,091 Level FlightAware UK
Sat 11:25:22 AM 50.3180 -6.7180 291° West 468 539 34,000  Climbing FlightAware ADS-B
Sat 11:25:42 AM 50.3347 -6.7866 291° West 488 562 32,500 -2,368 Descending FlightAware UK
Sat 11:26:00 AM 50.3486 -6.8434 291° West 488 562 32,500 3,600 Level FlightAware UK
Sat 11:26:07 AM 50.3520 -6.8570 291° West 467 537 34,000  Climbing FlightAware ADS-B
Sat 11:26:24 AM 50.3672 -6.9190 291° West 486 559 32,500 -2,571 Descending FlightAware UK
Sat 11:26:42 AM 50.3811 -6.9758 291° West 488 562 32,500 3,913 Level FlightAware UK
Sat 11:26:47 AM 50.3810 -6.9760 291° West 467 537 34,000  Climbing FlightAware ADS-B
Sat 11:27:06 AM 50.3994 -7.0509 291° West 488 562 32,500 -2,432 Descending FlightAware UK
Sat 11:27:24 AM 50.4132 -7.1078 291° West 488 562 32,500 4,286 Level FlightAware UK
Sat 11:27:27 AM 50.4100 -7.0950 291° West 468 539 34,000  Climbing FlightAware ADS-B
Sat 11:27:42 AM 50.4269 -7.1647 291° West 488 562 32,500 -2,727 Descending FlightAware UK
Sat 11:28:00 AM 50.4408 -7.2217 291° West 488 562 32,500 3,000 Level FlightAware UK
Sat 11:28:12 AM 50.4450 -7.2400 291° West 468 539 34,000  Climbing FlightAware ADS-B
Sat 11:28:30 AM 50.4637 -7.3167 291° West 490 564 32,500 -2,500 Descending FlightAware UK
Sat 11:28:48 AM 50.4774 -7.3737 291° West 490 564 32,500 4,091 Level FlightAware UK
Sat 11:28:52 AM 50.4750 -7.3620 291° West 467 537 34,000  Climbing FlightAware ADS-B
Sat 11:29:12 AM 50.4958 -7.4497 291° West 490 564 32,500 -2,368 Descending FlightAware UK
Sat 11:29:30 AM 50.5093 -7.5066 291° West 490 564 32,500 4,500 Level FlightAware UK
Sat 11:29:32 AM 50.5090 -7.5040 291° West 466 536 34,000  Climbing FlightAware ADS-B
Sat 11:29:48 AM 50.5228 -7.5636 291° West 490 564 32,500 -2,647 Descending FlightAware UK
Sat 11:30:06 AM 50.5363 -7.6205 290° West 490 564 32,500 3,103 Level FlightAware UK
Sat 11:30:17 AM 50.5430 -7.6500 290° West 465 535 34,000  Climbing FlightAware ADS-B
Sat 11:30:36 AM 50.5585 -7.7153 290° West 488 562 32,500 -2,432 Descending FlightAware UK
Sat 11:30:54 AM 50.5720 -7.7721 290° West 488 562 32,500 3,462 Level FlightAware UK
Sat 11:31:02 AM 50.5760 -7.7880 290° West 464 534 34,000  Climbing FlightAware ADS-B
Sat 11:31:18 AM 50.5898 -7.8480 290° West 488 562 32,500 -2,647 Descending FlightAware UK
Sat 11:31:36 AM 50.6031 -7.9049 290° West 488 562 32,500 3,750 Level FlightAware UK
Sat 11:31:42 AM 50.6030 -7.9030 290° West 464 534 34,000  Climbing FlightAware ADS-B
Sat 11:32:00 AM 50.6211 -7.9807 290° West 490 564 32,500 -2,500 Descending FlightAware UK
Sat 11:32:18 AM 50.6343 -8.0377 290° West 490 564 32,500 4,091 Level FlightAware UK
Sat 11:32:22 AM 50.6360 -8.0440 290° West 464 534 34,000  Climbing FlightAware ADS-B
Sat 11:32:42 AM 50.6518 -8.1137 290° West 490 564 32,500 -2,368 Descending FlightAware UK
Sat 11:33:00 AM 50.6649 -8.1707 290° West 488 562 32,500 3,600 Level FlightAware UK
Sat 11:33:07 AM 50.6660 -8.1770 290° West 464 534 34,000  Climbing FlightAware ADS-B
Sat 11:33:24 AM 50.6823 -8.2461 290° West 486 559 32,500 -2,571 Descending FlightAware UK
Sat 11:33:42 AM 50.6954 -8.3031 290° West 486 559 32,500 3,913 Level FlightAware UK
Sat 11:33:47 AM 50.6950 -8.3020 290° West 462 532 34,000  Climbing FlightAware ADS-B
Sat 11:34:06 AM 50.7129 -8.3793 290° West 488 562 32,500  Descending FlightAware UK
Sat 11:34:22 AM 50.7200 -8.4100 290° West 462 532 34,000  Climbing FlightAware ADS-B
Sat 11:34:24 AM 50.7261 -8.4365 290° West 488 562 32,500 -4,500 Descending FlightAware UK
Sat 11:34:42 AM 50.7393 -8.4936 290° West 490 564 32,500  Level FlightAware UK
Sat 11:35:00 AM 50.7523 -8.5510 290° West 488 562 32,500 3,000 Level FlightAware UK
Sat 11:35:12 AM 50.7590 -8.5820 290° West 464 534 34,000  Climbing FlightAware ADS-B
Sat 11:35:30 AM 50.7739 -8.6467 290° West 490 564 32,500 -2,500 Descending FlightAware UK
Sat 11:35:48 AM 50.7867 -8.7042 289° West 490 564 32,500  Level FlightAware UK
Sat 11:36:06 AM 50.7996 -8.7617 289° West 488 562 32,500 3,103 Level FlightAware UK
Sat 11:36:17 AM 50.8060 -8.7890 289° West 464 534 34,000  Climbing FlightAware ADS-B
Sat 11:36:36 AM 50.8210 -8.8576 289° West 490 564 32,500 -2,432 Descending FlightAware UK
Sat 11:36:54 AM 50.8338 -8.9151 289° West 492 566 32,500 3,462 Level FlightAware UK
Sat 11:37:02 AM 50.8350 -8.9240 289° West 462 532 34,000  Climbing FlightAware ADS-B
Sat 11:37:18 AM 50.8511 -8.9917 289° West 490 564 32,500  Descending FlightAware UK
Sat 11:37:42 AM 50.8570 -9.0330 289° West 462 532 34,000 1,406 Climbing FlightAware ADS-B
Sat 11:38:22 AM 50.8800 -9.1430 288° West 462 532 34,000  Level FlightAware ADS-B
Sat 11:39:07 AM 50.9260 -9.3330 291° West 462 532 34,000  Level FlightAware ADS-B
Sat 11:40:32 AM 50.9850 -9.6020 289° West 460 529 34,000  Level FlightAware ADS-B
Sat 11:43:00 AM 51.0468 -10.0347 283° West  Level Estimated
Sat 11:43:17 AM 51.0940 -10.1140 283° West 458 527 34,000  Level FlightAware ADS-B
Sat 11:44:17 AM 51.1340 -10.3090 288° West 457 526 34,000  Level FlightAware ADS-B
Sat 11:45:47 AM 51.1960 -10.6060 289° West 455 524 34,000  Level FlightAware ADS-B
Sat 11:46:32 AM 51.2220 -10.7340 288° West 455 524 34,000  Level FlightAware ADS-B
Sat 11:47:12 AM 51.2510 -10.8770 288° West 456 525 34,000  Level FlightAware ADS-B
Sat 11:47:57 AM 51.2760 -11.0060 287° West 456 525 34,000  Level FlightAware ADS-B
Sat 11:48:37 AM 51.2970 -11.1160 287° West 456 525 34,000  Level FlightAware ADS-B
Sat 11:49:17 AM 51.3180 -11.2250 287° West 456 525 34,000  Level FlightAware ADS-B
Sat 11:50:07 AM 51.3440 -11.3630 287° West 456 525 34,000  Level FlightAware ADS-B
Sat 11:50:47 AM 51.3650 -11.4730 287° West 456 525 34,000  Level FlightAware ADS-B
Sat 11:51:27 AM 51.3860 -11.5820 287° West 456 525 34,000  Level FlightAware ADS-B
Sat 11:52:07 AM 51.4070 -11.6920 287° West 456 525 34,000  Level FlightAware ADS-B
Sat 11:52:57 AM 51.4330 -11.8300 287° West 456 525 34,000  Level FlightAware ADS-B
Sat 11:53:37 AM 51.4540 -11.9400 287° West 456 525 34,000  Level FlightAware ADS-B
Sat 11:54:17 AM 51.4750 -12.0500 287° West 456 525 34,000  Level FlightAware ADS-B
Sat 11:54:57 AM 51.4960 -12.1600 287° West 456 525 34,000  Level FlightAware ADS-B
Sat 11:55:37 AM 51.5170 -12.2700 287° West 456 525 34,000  Level FlightAware ADS-B
Sat 11:56:27 AM 51.5430 -12.4080 287° West 456 525 34,000  Level FlightAware ADS-B
Sat 11:57:07 AM 51.5640 -12.5190 287° West 456 525 34,000 49 Level FlightAware ADS-B
Sat 11:59:00 AM 51.6022 -12.8564 280° West  Level Estimated
Sat 12:00:00 PM 51.6221 -13.0358 280° West  Level Estimated
Sat 12:01:00 PM 51.6418 -13.2154 280° West  Level Estimated
Sat 12:02:00 PM 51.6611 -13.3951 280° West  Level Estimated
Sat 12:03:00 PM 51.6802 -13.5750 280° West  Level Estimated
Sat 12:04:00 PM 51.6990 -13.7550 280° West  Level Estimated
Sat 12:05:00 PM 51.7175 -13.9351 279° West  Level Estimated
Sat 12:06:00 PM 51.7358 -14.1154 279° West  Level Estimated
Sat 12:07:00 PM 51.7538 -14.2959 279° West  Level Estimated
Sat 12:08:00 PM 51.7715 -14.4765 279° West  Level Estimated
Sat 12:09:00 PM 51.7889 -14.6572 279° West  Level Estimated
Sat 12:10:00 PM 51.8061 -14.8381 279° West  Level Estimated
Sat 12:11:00 PM 51.8229 -15.0191 279° West  Level Estimated
Sat 12:12:00 PM 51.8396 -15.2002 279° West  Level Estimated
Sat 12:13:00 PM 51.8559 -15.3815 278° West  Level Estimated
Sat 12:14:00 PM 51.8719 -15.5629 278° West  Level Estimated
Sat 12:15:00 PM 51.8877 -15.7444 278° West  Level Estimated
Sat 12:16:00 PM 51.9031 -15.9261 278° West  Level Estimated
Sat 12:17:00 PM 51.9184 -16.1078 278° West  Level Estimated
Sat 12:18:00 PM 51.9333 -16.2898 278° West  Level Estimated
Sat 12:19:00 PM 51.9479 -16.4718 278° West  Level Estimated
Sat 12:20:00 PM 51.9623 -16.6539 277° West  Level Estimated
Sat 12:21:00 PM 51.9763 -16.8362 277° West  Level Estimated
Sat 12:22:00 PM 51.9902 -17.0186 277° West  Level Estimated
Sat 12:23:00 PM 52.0037 -17.2010 277° West  Level Estimated
Sat 12:24:00 PM 52.0169 -17.3836 277° West  Level Estimated
Sat 12:25:00 PM 52.0298 -17.5663 277° West  Level Estimated
Sat 12:26:00 PM 52.0425 -17.7491 276° West  Level Estimated
Sat 12:27:00 PM 52.0549 -17.9320 276° West  Level Estimated
Sat 12:28:00 PM 52.0670 -18.1150 276° West  Level Estimated
Sat 12:29:00 PM 52.0794 -18.3081 276° West  Level Estimated
Sat 12:30:00 PM 52.0916 -18.5013 276° West  Level Estimated
Sat 12:31:00 PM 52.1034 -18.6945 276° West  Level Estimated
Sat 12:32:00 PM 52.1149 -18.8879 276° West  Level Estimated
Sat 12:33:00 PM 52.1261 -19.0814 275° West  Level Estimated
Sat 12:34:00 PM 52.1370 -19.2750 275° West  Level Estimated
Sat 12:35:00 PM 52.1475 -19.4686 275° West  Level Estimated
Sat 12:36:00 PM 52.1577 -19.6624 275° West  Level Estimated
Sat 12:37:00 PM 52.1677 -19.8562 275° West  Level Estimated
Sat 12:37:00 PM 51.0000 -20.0000 257° West 448 516 36,000  Level ETMS Enhanced Traffic Management System
Sat 12:38:00 PM 52.1773 -20.0501 275° West  Level Estimated
Sat 12:39:00 PM 52.1865 -20.2442 275° West  Level Estimated
Sat 12:40:00 PM 52.1955 -20.4382 274° West  Level Estimated
Sat 12:41:00 PM 52.2041 -20.6324 274° West  Level Estimated
Sat 12:42:00 PM 52.2125 -20.8266 274° West  Level Estimated
Sat 12:43:00 PM 50.7901 -21.3416 256° West 448 516 36,000  Level FlightAware Transoceanic
Sat 12:44:00 PM 50.7589 -21.5323 255° West 448 516 36,000  Level FlightAware Transoceanic
Sat 12:45:00 PM 50.7274 -21.7227 255° West 448 516 36,000  Level FlightAware Transoceanic
Sat 12:46:00 PM 50.6955 -21.9128 255° West 448 516 36,000  Level FlightAware Transoceanic
Sat 12:47:00 PM 50.6634 -22.1027 255° West 448 516 36,000  Level FlightAware Transoceanic
Sat 12:48:00 PM 50.6309 -22.2924 255° West 448 516 36,000  Level FlightAware Transoceanic
Sat 12:49:00 PM 50.5981 -22.4817 255° West 448 516 36,000  Level FlightAware Transoceanic
Sat 12:50:00 PM 50.5650 -22.6708 255° West 448 516 36,000  Level FlightAware Transoceanic
Sat 12:51:00 PM 50.5317 -22.8597 254° West 448 516 36,000  Level FlightAware Transoceanic
Sat 12:52:00 PM 50.4980 -23.0482 254° West 448 516 36,000  Level FlightAware Transoceanic
Sat 12:53:00 PM 50.4640 -23.2365 254° West 448 516 36,000  Level FlightAware Transoceanic
Sat 12:54:00 PM 50.4297 -23.4245 254° West 448 516 36,000  Level FlightAware Transoceanic
Sat 12:55:00 PM 50.3951 -23.6123 254° West 448 516 36,000  Level FlightAware Transoceanic
Sat 12:56:00 PM 50.3602 -23.7998 254° West 448 516 36,000  Level FlightAware Transoceanic
Sat 12:57:00 PM 50.3250 -23.9870 254° West 448 516 36,000  Level FlightAware Transoceanic
Sat 12:58:00 PM 50.2895 -24.1739 253° West 448 516 36,000  Level FlightAware Transoceanic
Sat 12:59:00 PM 50.2537 -24.3605 253° West 448 516 36,000  Level FlightAware Transoceanic
Sat 01:00:00 PM 50.2176 -24.5469 253° West 448 516 36,000  Level FlightAware Transoceanic
Sat 01:01:00 PM 50.1812 -24.7330 253° West 448 516 36,000  Level FlightAware Transoceanic
Sat 01:02:00 PM 50.1445 -24.9188 253° West 448 516 36,000  Level FlightAware Transoceanic
Sat 01:03:00 PM 50.1075 -25.1043 253° West 448 516 36,000  Level FlightAware Transoceanic
Sat 01:04:00 PM 50.0702 -25.2895 253° West 448 516 36,000  Level FlightAware Transoceanic
Sat 01:05:00 PM 50.0326 -25.4744 252° West 448 516 36,000  Level FlightAware Transoceanic
Sat 01:06:00 PM 49.9947 -25.6591 252° West 448 516 36,000  Level FlightAware Transoceanic
Sat 01:07:00 PM 49.9566 -25.8434 252° West 448 516 36,000  Level FlightAware Transoceanic
Sat 01:08:00 PM 49.9181 -26.0275 252° West 448 516 36,000  Level FlightAware Transoceanic
Sat 01:09:00 PM 49.8794 -26.2112 252° West 448 516 36,000  Level FlightAware Transoceanic
Sat 01:10:00 PM 49.8403 -26.3947 252° West 448 516 36,000  Level FlightAware Transoceanic
Sat 01:11:00 PM 49.8010 -26.5779 252° West 448 516 36,000  Level FlightAware Transoceanic
Sat 01:12:00 PM 49.7614 -26.7607 251° West 448 516 36,000  Level FlightAware Transoceanic
Sat 01:13:00 PM 49.7215 -26.9433 251° West 448 516 36,000  Level FlightAware Transoceanic
Sat 01:14:00 PM 49.6813 -27.1256 251° West 448 516 36,000  Level FlightAware Transoceanic
Sat 01:15:00 PM 49.6408 -27.3075 251° West 448 516 36,000  Level FlightAware Transoceanic
Sat 01:16:00 PM 49.6001 -27.4892 251° West 448 516 36,000  Level FlightAware Transoceanic
Sat 01:17:00 PM 49.5590 -27.6705 251° West 448 516 36,000  Level FlightAware Transoceanic
Sat 01:18:00 PM 49.5177 -27.8516 251° West 448 516 36,000  Level FlightAware Transoceanic
Sat 01:19:00 PM 49.4761 -28.0324 250° West 448 516 36,000  Level FlightAware Transoceanic
Sat 01:20:00 PM 49.4342 -28.2128 250° West 448 516 36,000  Level FlightAware Transoceanic
Sat 01:21:00 PM 49.3920 -28.3929 250° West 448 516 36,000  Level FlightAware Transoceanic
Sat 01:22:00 PM 49.3495 -28.5727 250° West 448 516 36,000  Level FlightAware Transoceanic
Sat 01:23:00 PM 49.3068 -28.7522 250° West 448 516 36,000  Level FlightAware Transoceanic
Sat 01:24:00 PM 49.2638 -28.9314 250° West 448 516 36,000  Level FlightAware Transoceanic
Sat 01:25:00 PM 49.2205 -29.1103 250° West 448 516 36,000  Level FlightAware Transoceanic
Sat 01:26:00 PM 49.1770 -29.2889 249° West 448 516 36,000  Level FlightAware Transoceanic
Sat 01:27:00 PM 49.1331 -29.4671 249° West 448 516 36,000  Level FlightAware Transoceanic
Sat 01:28:00 PM 49.0890 -29.6451 249° West 448 516 36,000  Level FlightAware Transoceanic
Sat 01:29:00 PM 49.0447 -29.8227 249° West 448 516 36,000 Level FlightAware Transoceanic
Sat 01:30:00 PM 49.0019 -29.9926 249° West  Level FlightAware Approximate
Sat 01:31:00 PM 48.9588 -30.1621 249° West  Level FlightAware Approximate
Sat 01:32:00 PM 48.9621 -30.1555 250° West  Level FlightAware Approximate
Sat 01:33:00 PM 48.9204 -30.3257 250° West  Level FlightAware Approximate
Sat 01:34:00 PM 48.8783 -30.4956 249° West  Level FlightAware Approximate
Sat 01:35:00 PM 48.8361 -30.6651 249° West  Level FlightAware Approximate
Sat 01:36:00 PM 48.7936 -30.8345 249° West  Level FlightAware Approximate
Sat 01:37:00 PM 48.7508 -31.0035 249° West  Level FlightAware Approximate
Sat 01:38:00 PM 48.7078 -31.1722 249° West  Level FlightAware Approximate
Sat 01:39:00 PM 48.6646 -31.3407 249° West  Level FlightAware Approximate
Sat 01:40:00 PM 48.6211 -31.5088 249° West  Level FlightAware Approximate
Sat 01:41:00 PM 48.5774 -31.6767 249° West  Level FlightAware Approximate
Sat 01:42:00 PM 48.5334 -31.8443 248° West  Level FlightAware Approximate
Sat 01:43:00 PM 48.4892 -32.0116 248° West  Level FlightAware Approximate
Sat 01:44:00 PM 48.4447 -32.1786 248° West  Level FlightAware Approximate
Sat 01:45:00 PM 48.4000 -32.3452 248° West  Level FlightAware Approximate
Sat 01:46:00 PM 48.3550 -32.5117 248° West  Level FlightAware Approximate
Sat 01:47:00 PM 48.3098 -32.6778 248° West  Level FlightAware Approximate
Sat 01:48:00 PM 48.2644 -32.8436 248° West  Level FlightAware Approximate
Sat 01:49:00 PM 48.2187 -33.0091 248° West  Level FlightAware Approximate
Sat 01:50:00 PM 48.1728 -33.1743 247° West  Level FlightAware Approximate
Sat 01:51:00 PM 48.1267 -33.3392 247° West  Level FlightAware Approximate
Sat 01:52:00 PM 48.0803 -33.5039 247° West  Level FlightAware Approximate
Sat 01:53:00 PM 48.0337 -33.6682 247° West  Level FlightAware Approximate
Sat 01:54:00 PM 47.9869 -33.8322 247° West  Level FlightAware Approximate
Sat 01:55:00 PM 47.9398 -33.9960 247° West  Level FlightAware Approximate
Sat 01:56:00 PM 47.8925 -34.1594 247° West  Level FlightAware Approximate
Sat 01:57:00 PM 47.8450 -34.3226 247° West  Level FlightAware Approximate
Sat 01:58:00 PM 47.7972 -34.4854 246° West  Level FlightAware Approximate
Sat 01:59:00 PM 47.7492 -34.6479 246° West  Level FlightAware Approximate
Sat 02:00:00 PM 47.7010 -34.8102 246° West  Level FlightAware Approximate
Sat 02:01:00 PM 47.6525 -34.9721 246° West  Level FlightAware Approximate
Sat 02:02:00 PM 47.6038 -35.1338 246° West  Level FlightAware Approximate
Sat 02:03:00 PM 47.5549 -35.2951 246° West  Level FlightAware Approximate
Sat 02:04:00 PM 47.5058 -35.4562 246° West  Level FlightAware Approximate
Sat 02:05:00 PM 47.4564 -35.6169 246° West  Level FlightAware Approximate
Sat 02:06:00 PM 47.4068 -35.7773 246° West  Level FlightAware Approximate
Sat 02:07:00 PM 47.3570 -35.9374 245° Southwest  Level FlightAware Approximate
Sat 02:08:00 PM 47.3070 -36.0973 245° Southwest  Level FlightAware Approximate
Sat 02:09:00 PM 47.2568 -36.2568 245° Southwest  Level FlightAware Approximate
Sat 02:10:00 PM 47.2064 -36.4161 245° Southwest  Level FlightAware Approximate
Sat 02:11:00 PM 47.1562 -36.5754 245° Southwest  Level FlightAware Approximate
Sat 02:12:00 PM 47.1059 -36.7344 245° Southwest  Level FlightAware Approximate
Sat 02:13:00 PM 47.0553 -36.8931 245° Southwest  Level FlightAware Approximate
Sat 02:14:00 PM 47.0045 -37.0515 245° Southwest  Level FlightAware Approximate
Sat 02:15:00 PM 46.9535 -37.2096 245° Southwest  Level FlightAware Approximate
Sat 02:16:00 PM 46.9022 -37.3674 245° Southwest  Level FlightAware Approximate
Sat 02:17:00 PM 46.8508 -37.5248 245° Southwest  Level FlightAware Approximate
Sat 02:18:00 PM 46.7991 -37.6820 244° Southwest  Level FlightAware Approximate
Sat 02:19:00 PM 46.7472 -37.8389 244° Southwest  Level FlightAware Approximate
Sat 02:20:00 PM 46.6951 -37.9955 244° Southwest  Level FlightAware Approximate
Sat 02:21:00 PM 46.6428 -38.1518 244° Southwest  Level FlightAware Approximate
Sat 02:22:00 PM 46.5903 -38.3078 244° Southwest  Level FlightAware Approximate
Sat 02:23:00 PM 46.5376 -38.4634 244° Southwest  Level FlightAware Approximate
Sat 02:24:00 PM 46.4846 -38.6188 244° Southwest  Level FlightAware Approximate
Sat 02:25:00 PM 46.4315 -38.7739 244° Southwest  Level FlightAware Approximate
Sat 02:26:00 PM 46.3781 -38.9286 243° Southwest  Level FlightAware Approximate
Sat 02:27:00 PM 46.3245 -39.0831 243° Southwest  Level FlightAware Approximate
Sat 02:28:00 PM 46.2707 -39.2372 243° Southwest  Level FlightAware Approximate
Sat 02:29:00 PM 46.2168 -39.3911 243° Southwest  Level FlightAware Approximate
Sat 02:30:00 PM 46.1626 -39.5447 243° Southwest  Level FlightAware Approximate
Sat 02:31:00 PM 46.1082 -39.6979 243° Southwest  Level FlightAware Approximate
Sat 02:32:00 PM 46.0536 -39.8508 243° Southwest  Level FlightAware Approximate
Sat 02:33:00 PM 45.9998 -40.0039 265° West  Level FlightAware Approximate
Sat 02:34:00 PM 45.9899 -40.1751 265° West  Level FlightAware Approximate
Sat 02:35:00 PM 45.9797 -40.3462 265° West  Level FlightAware Approximate
Sat 02:36:00 PM 45.9693 -40.5172 265° West  Level FlightAware Approximate
Sat 02:37:00 PM 45.9587 -40.6882 265° West  Level FlightAware Approximate
Sat 02:38:00 PM 45.9477 -40.8591 265° West  Level FlightAware Approximate
Sat 02:39:00 PM 45.9366 -41.0299 265° West  Level FlightAware Approximate
Sat 02:40:00 PM 45.9251 -41.2007 265° West  Level FlightAware Approximate
Sat 02:41:00 PM 45.9135 -41.3714 264° West  Level FlightAware Approximate
Sat 02:42:00 PM 45.9015 -41.5420 264° West  Level FlightAware Approximate
Sat 02:43:00 PM 45.8893 -41.7125 264° West  Level FlightAware Approximate
Sat 02:44:00 PM 45.8769 -41.8830 264° West  Level FlightAware Approximate
Sat 02:45:00 PM 45.8642 -42.0534 264° West  Level FlightAware Approximate
Sat 02:46:00 PM 45.8512 -42.2237 264° West  Level FlightAware Approximate
Sat 02:47:00 PM 45.8380 -42.3939 264° West  Level FlightAware Approximate
Sat 02:48:00 PM 45.8246 -42.5641 264° West  Level FlightAware Approximate
Sat 02:49:00 PM 45.8109 -42.7342 263° West  Level FlightAware Approximate
Sat 02:50:00 PM 45.7969 -42.9041 263° West  Level FlightAware Approximate
Sat 02:51:00 PM 45.7827 -43.0740 263° West  Level FlightAware Approximate
Sat 02:52:00 PM 45.7682 -43.2439 263° West  Level FlightAware Approximate
Sat 02:53:00 PM 45.7535 -43.4136 263° West  Level FlightAware Approximate
Sat 02:54:00 PM 45.7385 -43.5832 263° West  Level FlightAware Approximate
Sat 02:55:00 PM 45.7233 -43.7527 263° West  Level FlightAware Approximate
Sat 02:56:00 PM 45.7079 -43.9222 263° West  Level FlightAware Approximate
Sat 02:57:00 PM 45.6921 -44.0915 262° West  Level FlightAware Approximate
Sat 02:58:00 PM 45.6762 -44.2608 262° West  Level FlightAware Approximate
Sat 02:59:00 PM 45.6600 -44.4300 262° West  Level FlightAware Approximate
Sat 03:00:00 PM 45.6435 -44.5990 262° West  Level FlightAware Approximate
Sat 03:01:00 PM 45.6268 -44.7680 262° West  Level FlightAware Approximate
Sat 03:02:00 PM 45.6098 -44.9368 262° West  Level FlightAware Approximate
Sat 03:03:00 PM 45.5926 -45.1056 262° West  Level FlightAware Approximate
Sat 03:04:00 PM 45.5752 -45.2743 262° West  Level FlightAware Approximate
Sat 03:05:00 PM 45.5575 -45.4428 262° West  Level FlightAware Approximate
Sat 03:06:00 PM 45.5396 -45.6113 261° West  Level FlightAware Approximate
Sat 03:07:00 PM 45.5214 -45.7796 261° West  Level FlightAware Approximate
Sat 03:08:00 PM 45.5030 -45.9479 261° West  Level FlightAware Approximate
Sat 03:09:00 PM 45.4843 -46.1160 261° West  Level FlightAware Approximate
Sat 03:10:00 PM 45.4654 -46.2840 261° West  Level FlightAware Approximate
Sat 03:11:00 PM 45.4463 -46.4519 261° West  Level FlightAware Approximate
Sat 03:12:00 PM 45.4269 -46.6197 261° West  Level FlightAware Approximate
Sat 03:13:00 PM 45.4072 -46.7873 261° West  Level FlightAware Approximate
Sat 03:14:00 PM 45.3873 -46.9549 260° West  Level FlightAware Approximate
Sat 03:15:00 PM 45.3672 -47.1223 260° West  Level FlightAware Approximate
Sat 03:16:00 PM 45.3468 -47.2896 260° West  Level FlightAware Approximate
Sat 03:17:00 PM 45.3262 -47.4568 260° West  Level FlightAware Approximate
Sat 03:18:00 PM 45.3060 -47.6240 261° West  Level FlightAware Approximate
Sat 03:19:00 PM 45.2862 -47.7913 260° West  Level FlightAware Approximate
Sat 03:20:00 PM 45.2661 -47.9584 260° West  Level FlightAware Approximate
Sat 03:20:17 PM 44.9833 -50.2000 260° West 480 552 37,000  Level Gander Center
Sat 03:21:00 PM 45.2458 -48.1255 260° West  Level FlightAware Approximate
Sat 03:21:17 PM 44.9667 -50.4000 263° West 480 552 37,000  Level Gander Center
Sat 03:22:00 PM 45.2252 -48.2924 260° West  Level FlightAware Approximate
Sat 03:22:17 PM 44.9500 -50.6000 263° West 480 552 37,000  Level Gander Center
Sat 03:23:00 PM 45.2046 -48.4580 260° West  Level FlightAware Approximate
Sat 03:23:17 PM 44.9333 -50.7667 262° West 480 552 37,000  Level Gander Center
Sat 03:24:00 PM 45.1837 -48.6236 260° West  Level FlightAware Approximate
Sat 03:24:17 PM 44.9167 -50.9833 264° West 480 552 37,000  Level Gander Center
Sat 03:25:00 PM 45.1625 -48.7890 260° West  Level FlightAware Approximate
Sat 03:25:17 PM 44.9000 -51.1500 262° West 490 564 37,000  Level Gander Center
Sat 03:26:17 PM 44.8833 -51.3333 263° West 480 552 37,200 468 Climbing Gander Center
Sat 03:26:34 PM 44.8833 -51.3833 270° West 470 541 37,600 623 Climbing Gander Center
Sat 03:27:34 PM 44.8833 -51.5833 270° West 480 552 38,000 200 Climbing Gander Center
Sat 03:28:34 PM 44.8667 -51.7667 263° West 480 552 38,000  Level Gander Center
Sat 03:29:34 PM 44.8667 -51.9500 270° West 490 564 38,000  Level Gander Center
Sat 03:30:17 PM 44.8333 -52.0833 251° West 480 552 38,000  Level Gander Center
Sat 03:31:17 PM 44.8333 -52.2667 270° West 470 541 38,000  Level Moncton Center
Sat 03:32:17 PM 44.8167 -52.4667 263° West 480 552 38,000  Level Moncton Center
Sat 03:32:34 PM 44.8000 -52.5167 245° Southwest 480 552 38,000  Level Gander Center
Sat 03:33:17 PM 44.8000 -52.6333 270° West 470 541 38,000  Level Gander Center
Sat 03:33:34 PM 44.7833 -52.7000 251° West 480 552 38,000  Level Gander Center
Sat 03:34:34 PM 44.7833 -52.8667 270° West 470 541 38,000  Level Gander Center
Sat 03:35:17 PM 44.7667 -53.0167 261° West 470 541 38,000  Level Moncton Center
Sat 03:36:17 PM 44.7500 -53.1833 262° West 470 541 38,000  Level Moncton Center
Sat 03:36:34 PM 44.7500 -53.2500 270° West 470 541 38,000  Level Gander Center
Sat 03:37:17 PM 44.7333 -53.3833 260° West 470 541 38,000  Level Moncton Center
Sat 03:38:17 PM 44.7167 -53.5833 263° West 470 541 38,000  Level Moncton Center
Sat 03:39:17 PM 44.7167 -53.7500 270° West 480 552 38,000  Level Moncton Center
Sat 03:40:17 PM 44.6833 -53.9167 254° West 470 541 38,000  Level Moncton Center
Sat 03:40:34 PM 44.6833 -53.9833 270° West 470 541 38,000  Level Gander Center
Sat 03:41:34 PM 44.6667 -54.1833 263° West 470 541 38,000  Level Gander Center
Sat 03:42:17 PM 44.6500 -54.3000 259° West 470 541 38,000  Level Moncton Center
Sat 03:43:17 PM 44.6333 -54.4833 263° West 480 552 38,000  Level Moncton Center
Sat 03:43:17 PM 44.6333 -54.4833 263° West 490 564 38,000  Level Gander Center
Sat 03:44:17 PM 44.6167 -54.6833 263° West 480 552 38,000  Level Gander Center
Sat 03:45:17 PM 44.6000 -54.8500 262° West 470 541 38,000  Level Gander Center
Sat 03:46:17 PM 44.5833 -55.0500 263° West 470 541 38,000  Level Moncton Center
Sat 03:51:27 PM 44.4960 -56.0020 263° West 469 540 38,000  Level FlightAware ADS-B
Sat 03:52:02 PM 44.4850 -56.1020 261° West 469 540 38,000  Level FlightAware ADS-B
Sat 03:52:42 PM 44.4730 -56.2040 261° West 469 540 38,000  Level FlightAware ADS-B
Sat 03:53:22 PM 44.4550 -56.3540 261° West 468 539 38,000  Level FlightAware ADS-B
Sat 03:54:07 PM 44.4400 -56.4710 260° West 468 539 38,000  Level FlightAware ADS-B
Sat 03:54:47 PM 44.4270 -56.5720 260° West 468 539 38,000  Level FlightAware ADS-B
Sat 03:55:37 PM 44.4110 -56.6990 260° West 468 539 38,000  Level FlightAware ADS-B
Sat 03:56:17 PM 44.3990 -56.8010 261° West 468 539 38,000  Level FlightAware ADS-B
Sat 03:56:57 PM 44.3860 -56.9020 260° West 468 539 38,000  Level FlightAware ADS-B
Sat 03:57:37 PM 44.3730 -57.0040 260° West 468 539 38,000  Level FlightAware ADS-B
Sat 03:58:22 PM 44.3450 -57.2300 260° West 467 537 38,000  Level FlightAware ADS-B
Sat 03:59:07 PM 44.3270 -57.3790 260° West 467 537 38,000  Level FlightAware ADS-B
Sat 03:59:47 PM 44.3120 -57.4910 259° West 467 537 38,000  Level FlightAware ADS-B
Sat 04:00:32 PM 44.2950 -57.6250 260° West 466 536 38,000  Level FlightAware ADS-B
Sat 04:01:02 PM 44.2840 -57.7080 260° West 466 536 38,000  Level FlightAware ADS-B
Sat 04:02:07 PM 44.2570 -57.9100 259° West 466 536 38,000  Level FlightAware ADS-B
Sat 04:02:42 PM 44.2440 -58.0050 259° West 467 537 38,000  Level FlightAware ADS-B
Sat 04:03:32 PM 44.2230 -58.1550 259° West 466 536 38,000  Level FlightAware ADS-B
Sat 04:04:12 PM 44.2080 -58.2680 260° West 466 536 38,000  Level FlightAware ADS-B
Sat 04:04:57 PM 44.1890 -58.4080 259° West 465 535 38,000  Level FlightAware ADS-B
Sat 04:05:37 PM 44.1720 -58.5250 259° West 465 535 38,000  Level FlightAware ADS-B
Sat 04:06:22 PM 44.1540 -58.6550 259° West 464 534 38,000  Level FlightAware ADS-B
Sat 04:06:52 PM 44.1410 -58.7410 258° West 463 533 38,000  Level FlightAware ADS-B
Sat 04:07:42 PM 44.1200 -58.8890 259° West 460 529 38,000  Level FlightAware ADS-B
Sat 04:08:27 PM 44.1010 -59.0210 259° West 459 528 38,000  Level FlightAware ADS-B
Sat 04:09:07 PM 44.0840 -59.1370 259° West 457 526 38,000  Level FlightAware ADS-B
Sat 04:09:47 PM 44.0680 -59.2510 259° West 455 524 38,000  Level FlightAware ADS-B
Sat 04:10:32 PM 44.0490 -59.3770 258° West 453 521 38,000  Level FlightAware ADS-B
Sat 04:11:17 PM 44.0340 -59.4770 258° West 453 521 38,000  Level FlightAware ADS-B
Sat 04:11:52 PM 44.0190 -59.5740 258° West 453 521 38,000  Level FlightAware ADS-B
Sat 04:12:37 PM 43.9970 -59.7210 258° West 447 514 38,000  Level FlightAware ADS-B
Sat 04:13:17 PM 43.9800 -59.8310 258° West 445 512 38,000  Level FlightAware ADS-B
Sat 04:13:57 PM 43.9660 -59.9270 259° West 445 512 38,000  Level FlightAware ADS-B
Sat 04:14:37 PM 43.9460 -60.0550 258° West 443 510 38,000  Level FlightAware ADS-B
Sat 04:15:27 PM 43.9280 -60.1740 258° West 443 510 38,000  Level FlightAware ADS-B
Sat 04:16:07 PM 43.9140 -60.2680 258° West 443 510 38,000  Level FlightAware ADS-B
Sat 04:16:47 PM 43.8990 -60.3630 258° West 443 510 38,000  Level FlightAware ADS-B
Sat 04:17:27 PM 43.8850 -60.4570 258° West 443 510 38,000  Level FlightAware ADS-B
Sat 04:18:17 PM 43.8660 -60.5760 258° West 443 510 38,000  Level FlightAware ADS-B
Sat 04:18:57 PM 43.8520 -60.6700 258° West 443 510 38,000  Level FlightAware ADS-B
Sat 04:19:37 PM 43.8370 -60.7650 258° West 443 510 38,000  Level FlightAware ADS-B
Sat 04:20:17 PM 43.8230 -60.8590 258° West 443 510 38,000  Level FlightAware ADS-B
Sat 04:20:57 PM 43.8080 -60.9540 258° West 443 510 38,000  Level FlightAware ADS-B
Sat 04:21:47 PM 43.7900 -61.0720 258° West 443 510 38,000  Level FlightAware ADS-B
Sat 04:22:27 PM 43.7760 -61.1660 258° West 443 510 38,000  Level FlightAware ADS-B
Sat 04:23:07 PM 43.7610 -61.2600 258° West 443 510 38,000  Level FlightAware ADS-B
Sat 04:23:47 PM 43.7470 -61.3550 259° West 443 510 38,000  Level FlightAware ADS-B
Sat 04:24:17 PM 43.6667 -61.6500 259° West 440 506 38,000  Level Moncton Center
Sat 04:25:17 PM 43.6333 -61.8167 255° West 440 506 38,000  Level Moncton Center
Sat 04:26:17 PM 43.6167 -61.9667 261° West 440 506 38,000  Level Moncton Center
Sat 04:27:17 PM 43.5833 -62.1333 255° West 440 506 38,000  Level Moncton Center
Sat 04:28:17 PM 43.5667 -62.3000 262° West 440 506 38,000  Level Moncton Center
Sat 04:29:17 PM 43.5167 -62.4667 248° West 440 506 38,000  Level Moncton Center
Sat 04:30:17 PM 43.5000 -62.6167 261° West 440 506 38,000  Level Moncton Center
Sat 04:31:17 PM 43.4667 -62.7833 255° West 430 495 38,000  Level Moncton Center
Sat 04:32:17 PM 43.4500 -62.9500 262° West 430 495 38,000  Level Moncton Center
Sat 04:33:17 PM 43.4167 -63.1167 255° West 430 495 38,000  Level Moncton Center
Sat 04:34:17 PM 43.3833 -63.2667 253° West 430 495 38,000  Level Moncton Center
Sat 04:35:17 PM 43.3500 -63.4333 255° West 430 495 38,000  Level Moncton Center
Sat 04:36:17 PM 43.3167 -63.6000 255° West 420 483 38,000  Level Moncton Center
Sat 04:41:47 PM 43.1740 -64.4360 255° West 407 468 38,000  Level FlightAware ADS-B
Sat 04:42:57 PM 43.1400 -64.6090 255° West 403 464 38,000  Level FlightAware ADS-B
Sat 04:43:32 PM 43.1220 -64.6970 254° West 403 464 38,000  Level FlightAware ADS-B
Sat 04:44:22 PM 43.0970 -64.8200 254° West 402 463 38,000  Level FlightAware ADS-B
Sat 04:45:17 PM 43.0700 -64.9530 255° West 396 456 38,000  Level FlightAware ADS-B
Sat 04:45:57 PM 43.0500 -65.0520 255° West 400 460 38,000  Level FlightAware ADS-B
Sat 04:46:42 PM 43.0280 -65.1610 255° West 402 463 38,000  Level FlightAware ADS-B
Sat 04:47:37 PM 43.0000 -65.2960 254° West 400 460 38,000  Level FlightAware ADS-B
Sat 04:48:17 PM 42.9790 -65.3970 254° West 400 460 38,000  Level FlightAware ADS-B
Sat 04:49:02 PM 42.9580 -65.4970 254° West 401 461 38,000  Level FlightAware ADS-B
Sat 04:50:12 PM 42.9210 -65.6730 254° West 403 464 38,000  Level FlightAware ADS-B
Sat 04:50:52 PM 42.9010 -65.7730 255° West 403 464 38,000  Level FlightAware ADS-B
Sat 04:51:37 PM 42.8770 -65.8840 254° West 402 463 38,000  Level FlightAware ADS-B
Sat 04:52:17 PM 42.8560 -65.9830 254° West 403 464 38,000  Level FlightAware ADS-B
Sat 04:52:57 PM 42.8350 -66.0810 254° West 403 464 38,000  Level FlightAware ADS-B
Sat 04:53:42 PM 42.8110 -66.1900 253° West 405 466 38,000  Level FlightAware ADS-B
Sat 04:54:22 PM 42.7900 -66.2880 254° West 404 465 38,000  Level FlightAware ADS-B
Sat 04:55:07 PM 42.7670 -66.3960 254° West 403 464 38,000  Level FlightAware ADS-B
Sat 04:55:47 PM 42.7460 -66.4920 253° West 401 461 38,000  Level FlightAware ADS-B
Sat 04:56:27 PM 42.7260 -66.5810 253° West 401 461 38,000  Level FlightAware ADS-B
Sat 04:57:27 PM 42.6950 -66.7210 253° West 400 460 38,000  Level FlightAware ADS-B
Sat 04:58:07 PM 42.6770 -66.8030 253° West 400 460 38,000  Level FlightAware ADS-B
Sat 04:58:47 PM 42.6580 -66.8850 253° West 400 460 38,000  Level FlightAware ADS-B
Sat 04:59:27 PM 42.6400 -66.9670 253° West 400 460 38,000  Level FlightAware ADS-B
Sat 05:00:07 PM 42.6210 -67.0490 253° West 400 460 38,000  Level FlightAware ADS-B
Sat 05:00:57 PM 42.5980 -67.1510 253° West 400 460 38,000  Level FlightAware ADS-B
Sat 05:01:27 PM 42.5850 -67.2120 254° West 400 460 38,000  Level FlightAware ADS-B
Sat 05:02:07 PM 42.5660 -67.2940 253° West 400 460 38,000  Level FlightAware ADS-B
Sat 05:02:47 PM 42.5480 -67.3760 253° West 400 460 38,000  Level FlightAware ADS-B
Sat 05:03:37 PM 42.5250 -67.4780 253° West 400 460 38,000  Level FlightAware ADS-B
Sat 05:04:17 PM 42.5060 -67.5590 252° West 400 460 38,000  Level FlightAware ADS-B
Sat 05:04:57 PM 42.6340 -67.8540 301° West 38,000  Level FlightAware ADS-B
Sat 05:06:02 PM 42.6340 -68.0140 270° West 393 452 38,000  Level FlightAware ADS-B
Sat 05:06:52 PM 42.6330 -68.1380 269° West 389 448 38,000  Level FlightAware ADS-B
Sat 05:07:32 PM 42.6330 -68.2380 270° West 390 449 38,000  Level FlightAware ADS-B
Sat 05:08:17 PM 42.6320 -68.3450 269° West 391 450 38,000  Level FlightAware ADS-B
Sat 05:08:57 PM 42.6310 -68.4480 269° West 393 452 38,000 -480 Level FlightAware ADS-B
Sat 05:09:32 PM 42.6300 -68.5320 269° West 397 457 37,400 -847 Descending FlightAware ADS-B
Sat 05:10:22 PM 42.6290 -68.6570 269° West 399 459 36,800 -565 Descending FlightAware ADS-B
Sat 05:10:57 PM 42.6290 -68.7290 270° West 398 458 36,600 -1,906 Descending FlightAware ADS-B
Sat 05:11:47 PM 42.6270 -68.8610 269° West 386 444 34,100 -2,867 Descending FlightAware ADS-B
Sat 05:12:27 PM 42.6260 -68.9610 269° West 381 438 32,300 -2,541 Descending FlightAware ADS-B
Sat 05:13:12 PM 42.6250 -69.0650 269° West 375 432 30,500 -2,337 Descending FlightAware ADS-B
Sat 05:14:02 PM 42.6230 -69.1860 269° West 360 414 28,600 -2,467 Descending FlightAware ADS-B
Sat 05:14:42 PM 42.6220 -69.2770 269° West 358 412 26,800 -2,400 Descending FlightAware ADS-B
Sat 05:15:27 PM 42.6200 -69.3760 268° West 348 400 25,200 -2,118 Descending FlightAware ADS-B
Sat 05:16:07 PM 42.6190 -69.4600 269° West 335 386 23,800 -2,100 Descending FlightAware ADS-B
Sat 05:16:47 PM 42.6170 -69.5440 268° West 324 373 22,400 -2,047 Descending FlightAware ADS-B
Sat 05:17:32 PM 42.6160 -69.6330 269° West 313 360 20,900 -2,200 Descending FlightAware ADS-B
Sat 05:18:17 PM 42.6140 -69.7200 268° West 314 361 19,100 -2,329 Descending FlightAware ADS-B
Sat 05:18:57 PM 42.6130 -69.7970 269° West 313 360 17,600 -2,175 Descending FlightAware ADS-B
Sat 05:19:37 PM 42.6110 -69.8780 268° West 311 358 16,200 -2,118 Descending FlightAware ADS-B
Sat 05:20:22 PM 42.6090 -69.9650 268° West 308 354 14,600 -1,958 Descending FlightAware ADS-B
Sat 05:21:12 PM 42.6070 -70.0600 268° West 299 344 13,100 -1,800 Descending FlightAware ADS-B
Sat 05:22:02 PM 42.6050 -70.1510 268° West 287 330 11,600 -1,400 Descending FlightAware ADS-B
Sat 05:22:42 PM 42.6030 -70.2190 268° West 276 318 11,000 -514 Descending FlightAware ADS-B
Sat 05:23:12 PM 42.5900 -70.2650 249° West 235 270 11,000  Level FlightAware ADS-B
Sat 05:23:52 PM 42.5580 -70.2970 216° Southwest 220 253 11,000 -353 Level FlightAware ADS-B
Sat 05:24:37 PM 42.5230 -70.3310 216° Southwest 183 211 10,500 -1,015 Descending FlightAware ADS-B
Sat 05:24:57 PM 42.5110 -70.3440 219° Southwest 186 214 9,900 -1,560 Descending FlightAware ADS-B
Sat 05:25:27 PM 42.4900 -70.3660 218° Southwest 192 221 9,200 -1,200 Descending FlightAware ADS-B
Sat 05:25:57 PM 42.4710 -70.3920 225° Southwest 170 196 8,700 -1,200 Descending FlightAware ADS-B
Sat 05:26:12 PM 42.4660 -70.4090 248° West 173 199 8,300 -1,467 Descending FlightAware ADS-B
Sat 05:26:42 PM 42.4590 -70.4360 251° West 174 200 7,600 -1,333 Descending FlightAware ADS-B
Sat 05:26:57 PM 42.4540 -70.4520 247° West 161 185 7,300 -1,050 Descending FlightAware ADS-B
Sat 05:27:22 PM 42.4490 -70.4780 255° West 155 178 6,900 -982 Descending FlightAware ADS-B
Sat 05:27:52 PM 42.4440 -70.5060 256° West 158 182 6,400 -1,100 Descending FlightAware ADS-B
Sat 05:28:22 PM 42.4390 -70.5370 258° West 160 184 5,800 -1,091 Descending FlightAware ADS-B
Sat 05:28:47 PM 42.4360 -70.5590 260° West 163 188 5,400 -1,091 Descending FlightAware ADS-B
Sat 05:29:17 PM 42.4300 -70.5920 256° West 164 189 4,800 -982 Descending FlightAware ADS-B
Sat 05:29:42 PM 42.4250 -70.6170 255° West 163 188 4,500 -764 Descending FlightAware ADS-B
Sat 05:30:12 PM 42.4200 -70.6470 257° West 167 192 4,100 -500 Descending FlightAware ADS-B
Sat 05:30:42 PM 42.4150 -70.6760 257° West 164 189 4,000 -109 Descending FlightAware ADS-B
Sat 05:31:07 PM 42.4110 -70.6990 257° West 159 183 4,000 -218 Level FlightAware ADS-B
Sat 05:31:37 PM 42.4050 -70.7320 256° West 162 186 3,800 -545 Descending FlightAware ADS-B
Sat 05:32:02 PM 42.4010 -70.7550 257° West 168 193 3,500 -840 Descending FlightAware ADS-B
Sat 05:32:27 PM 42.3960 -70.7830 256° West 159 183 3,100 -900 Descending FlightAware ADS-B
Sat 05:33:02 PM 42.3910 -70.8140 258° West 146 168 2,600 -500 Descending FlightAware ADS-B
Sat 05:33:27 PM 42.3870 -70.8340 255° West 146 168 2,600 -771 Level FlightAware ADS-B
Sat 05:34:12 PM 42.3814 -70.8775 255° West 151 174 1,700 -914 Descending Boston Center
Sat 05:35:12 PM 42.3717 -70.9253 255° West 151 174 1,000 -650 Descending Boston Center
Sat 05:36:12 PM 42.3639 -70.9789 259° West 151 174 400 -600 Descending Boston Center
Sat 05:38:00 PM 42.3630 -71.0064 350° North  Level Estimated
Sat 05:45:00 PM 42.3630 -71.0064 North  Level Estimated
Sat 05:46:00 PM 42.3630 -71.0064 North  Level Estimated
Sat 05:47:00 PM 42.3630 -71.0064 North  Level Estimated
Sat 05:48:00 PM 42.3630 -71.0064 North  Level Estimated
Sat 05:49:00 PM 42.3630 -71.0064 North  Level Estimated
Sat 05:50:00 PM 42.3630 -71.0064 North  Level Estimated

Login

Don't have an account? Register now (free) for customized features, flight alerts, and more!